createdAt,value
2023-04-04T00:00:29.746Z,72.77
2023-04-04T00:02:56.613Z,72.40
2023-04-04T00:05:24.112Z,72.56
2023-04-04T00:07:50.773Z,71.81
2023-04-04T00:10:17.784Z,72.48
2023-04-04T00:12:44.426Z,72.52
2023-04-04T00:15:11.332Z,72.08
2023-04-04T00:17:37.994Z,72.31
2023-04-04T00:20:05.018Z,72.28
2023-04-04T00:22:31.844Z,72.63
2023-04-04T00:24:59.269Z,72.53
2023-04-04T00:27:26.372Z,73.07
2023-04-04T00:29:52.993Z,74.17
2023-04-04T00:32:19.814Z,74.75
2023-04-04T00:34:46.707Z,74.39
2023-04-04T00:37:13.389Z,74.55
2023-04-04T00:39:40.281Z,74.92
2023-04-04T00:42:07.532Z,75.72
2023-04-04T00:44:36.531Z,75.46
2023-04-04T00:47:04.750Z,74.99
2023-04-04T00:49:31.326Z,75.61
2023-04-04T00:51:58.297Z,75.47
2023-04-04T00:54:25.385Z,76.53
2023-04-04T00:56:55.719Z,78.06
2023-04-04T00:59:23.982Z,78.72
2023-04-04T01:01:51.065Z,78.50
2023-04-04T01:04:17.918Z,78.12
2023-04-04T01:06:45.890Z,78.84
2023-04-04T01:09:13.246Z,79.99
2023-04-04T01:11:39.939Z,82.01
2023-04-04T01:14:06.562Z,82.00
2023-04-04T01:16:33.394Z,82.05
2023-04-04T01:19:00.283Z,81.32
2023-04-04T01:21:27.599Z,81.47
2023-04-04T01:24:04.710Z,82.28
2023-04-04T01:26:31.859Z,83.35
2023-04-04T01:28:59.621Z,85.02
2023-04-04T01:31:30.101Z,84.78
2023-04-04T01:34:38.338Z,85.45
2023-04-04T01:37:29.085Z,85.43
2023-04-04T01:40:21.993Z,85.34
2023-04-04T01:42:49.661Z,85.42
2023-04-04T01:45:16.369Z,85.72
2023-04-04T01:47:43.745Z,85.34
2023-04-04T01:50:11.879Z,85.86
2023-04-04T01:52:38.555Z,87.33
2023-04-04T01:55:05.615Z,86.94
2023-04-04T01:57:32.250Z,87.64
2023-04-04T01:59:58.823Z,88.70
2023-04-04T02:02:25.627Z,88.27
2023-04-04T02:04:52.415Z,89.12
2023-04-04T02:07:19.582Z,88.33
2023-04-04T02:09:46.471Z,87.55
2023-04-04T02:12:13.556Z,86.41
2023-04-04T02:14:41.058Z,85.37
2023-04-04T02:17:07.820Z,85.93
2023-04-04T02:19:34.441Z,86.00
2023-04-04T02:22:01.111Z,85.55
2023-04-04T02:24:27.823Z,86.90
2023-04-04T02:26:54.492Z,87.93
2023-04-04T02:29:21.142Z,86.66
2023-04-04T02:31:48.278Z,86.50
2023-04-04T02:34:14.894Z,86.92
2023-04-04T02:36:41.582Z,88.47
2023-04-04T02:39:08.187Z,88.29
2023-04-04T02:41:34.823Z,89.11
2023-04-04T02:44:01.416Z,87.92
2023-04-04T02:46:28.177Z,87.77
2023-04-04T02:48:54.681Z,87.83
2023-04-04T02:51:21.473Z,88.48
2023-04-04T02:53:48.129Z,88.90
2023-04-04T02:56:14.708Z,89.33
2023-04-04T02:58:41.676Z,89.45
2023-04-04T03:01:09.218Z,89.07
2023-04-04T03:03:36.182Z,89.34
2023-04-04T03:06:03.015Z,90.36
2023-04-04T03:08:29.592Z,91.92
2023-04-04T03:10:56.541Z,91.26
2023-04-04T03:13:23.056Z,91.99
2023-04-04T03:15:49.834Z,92.05
2023-04-04T03:18:16.747Z,91.82
2023-04-04T03:20:43.423Z,91.25
2023-04-04T03:23:10.005Z,91.27
2023-04-04T03:25:36.592Z,91.36
2023-04-04T03:28:12.735Z,91.87
2023-04-04T03:30:40.212Z,91.67
2023-04-04T03:33:10.504Z,91.50
2023-04-04T03:35:41.251Z,91.20
2023-04-04T03:38:09.602Z,91.15
2023-04-04T03:40:36.884Z,91.26
2023-04-04T03:43:03.590Z,91.40
2023-04-04T03:45:30.551Z,91.43
2023-04-04T03:47:57.313Z,91.81
2023-04-04T03:50:23.972Z,92.19
2023-04-04T03:52:50.980Z,92.01
2023-04-04T03:55:17.827Z,92.03
2023-04-04T03:57:44.716Z,93.18
2023-04-04T04:00:12.401Z,93.25
2023-04-04T04:02:39.395Z,94.15
2023-04-04T04:05:06.308Z,93.89
2023-04-04T04:07:32.985Z,94.34
2023-04-04T04:09:59.590Z,94.76
2023-04-04T04:12:26.465Z,94.85
2023-04-04T04:14:53.190Z,94.18
2023-04-04T04:17:20.047Z,95.10
2023-04-04T04:19:46.907Z,95.10
2023-04-04T04:22:13.525Z,95.86
2023-04-04T04:24:40.286Z,96.19
2023-04-04T04:27:07.271Z,97.00
2023-04-04T04:29:33.825Z,96.87
2023-04-04T04:32:01.928Z,97.01
2023-04-04T04:34:28.670Z,97.20
2023-04-04T04:36:55.388Z,96.97
2023-04-04T04:39:22.233Z,98.08
2023-04-04T04:41:48.963Z,97.81
2023-04-04T04:44:15.687Z,98.06
2023-04-04T04:46:42.452Z,98.47
2023-04-04T04:49:09.119Z,98.11
2023-04-04T04:51:35.849Z,99.23
2023-04-04T04:54:02.444Z,99.48
2023-04-04T04:56:29.187Z,99.41
2023-04-04T04:58:55.786Z,99.89
2023-04-04T05:01:22.664Z,100.00
2023-04-04T05:03:51.210Z,100.00
2023-04-04T05:06:18.719Z,99.68
2023-04-04T05:08:45.409Z,100.00
2023-04-04T05:11:12.004Z,100.00
2023-04-04T05:13:38.619Z,100.00
2023-04-04T05:16:05.509Z,100.00
2023-04-04T05:18:32.205Z,100.00
2023-04-04T05:20:59.074Z,100.00
2023-04-04T05:23:25.797Z,100.00
2023-04-04T05:25:53.604Z,99.89
2023-04-04T05:28:21.122Z,99.44
2023-04-04T05:30:47.950Z,98.82
2023-04-04T05:33:14.808Z,98.85
2023-04-04T05:35:41.975Z,98.27
2023-04-04T05:38:08.835Z,98.67
2023-04-04T05:40:35.642Z,97.67
2023-04-04T05:43:04.461Z,98.24
2023-04-04T05:45:32.006Z,97.74
2023-04-04T05:47:58.867Z,97.70
2023-04-04T05:50:25.979Z,97.18
2023-04-04T05:52:56.124Z,96.21
2023-04-04T05:55:23.119Z,96.57
2023-04-04T05:57:51.244Z,96.35
2023-04-04T06:00:19.659Z,97.22
2023-04-04T06:02:46.660Z,96.86
2023-04-04T06:05:13.311Z,97.22
2023-04-04T06:07:40.283Z,97.63
2023-04-04T06:10:07.978Z,97.19
2023-04-04T06:12:34.652Z,96.86
2023-04-04T06:15:01.568Z,96.58
2023-04-04T06:17:28.355Z,96.93
2023-04-04T06:19:55.523Z,97.56
2023-04-04T06:22:22.332Z,97.29
2023-04-04T06:24:48.975Z,96.94
2023-04-04T06:27:16.019Z,96.81
2023-04-04T06:29:43.072Z,97.10
2023-04-04T06:32:09.808Z,96.46
2023-04-04T06:34:36.465Z,96.46
2023-04-04T06:37:03.710Z,96.36
2023-04-04T06:39:31.800Z,95.13
2023-04-04T06:41:58.432Z,94.48
2023-04-04T06:44:25.336Z,94.86
2023-04-04T06:46:52.282Z,94.95
2023-04-04T06:49:18.851Z,95.50
2023-04-04T06:51:45.732Z,95.71
2023-04-04T06:54:12.430Z,95.59
2023-04-04T06:56:39.090Z,95.02
2023-04-04T06:59:05.979Z,94.46
2023-04-04T07:01:35.738Z,94.63
2023-04-04T07:04:02.953Z,95.69
2023-04-04T07:06:29.953Z,94.57
2023-04-04T07:08:57.005Z,94.21
2023-04-04T07:11:27.362Z,94.82
2023-04-04T07:13:54.244Z,93.66
2023-04-04T07:16:21.372Z,93.50
2023-04-04T07:18:48.138Z,93.55
2023-04-04T07:21:14.924Z,93.16
2023-04-04T07:23:41.572Z,92.38
2023-04-04T07:26:08.352Z,91.14
2023-04-04T07:28:35.144Z,90.67
2023-04-04T07:31:02.264Z,89.86
2023-04-04T07:33:29.302Z,89.03
2023-04-04T07:35:55.942Z,89.48
2023-04-04T07:38:22.933Z,88.26
2023-04-04T07:40:50.781Z,86.29
2023-04-04T07:43:17.478Z,85.19
2023-04-04T07:45:44.320Z,84.71
2023-04-04T07:48:11.276Z,84.07
2023-04-04T07:50:38.323Z,84.08
2023-04-04T07:53:05.259Z,83.41
2023-04-04T07:55:32.005Z,83.12
2023-04-04T07:57:58.862Z,82.60
2023-04-04T08:00:26.724Z,82.77
2023-04-04T08:02:55.238Z,82.78
2023-04-04T08:05:22.427Z,81.82
2023-04-04T08:07:49.213Z,80.80
2023-04-04T08:10:19.414Z,80.17
2023-04-04T08:12:46.205Z,79.31
2023-04-04T08:15:13.330Z,80.32
2023-04-04T08:17:40.404Z,80.11
2023-04-04T08:20:07.944Z,77.45
2023-04-04T08:22:34.497Z,77.74
2023-04-04T08:25:01.456Z,78.42
2023-04-04T08:27:28.127Z,77.84
2023-04-04T08:29:54.843Z,78.22
2023-04-04T08:32:22.376Z,77.26
2023-04-04T08:34:49.969Z,77.88
2023-04-04T08:37:17.221Z,78.54
2023-04-04T08:39:44.235Z,78.14
2023-04-04T08:42:12.187Z,77.73
2023-04-04T08:44:42.215Z,77.04
2023-04-04T08:47:10.981Z,74.77
2023-04-04T08:49:41.489Z,75.22
2023-04-04T08:52:11.801Z,75.80
2023-04-04T08:54:40.990Z,74.96
2023-04-04T08:57:08.679Z,72.62
2023-04-04T08:59:36.118Z,72.10
2023-04-04T09:02:06.459Z,71.95
2023-04-04T09:04:33.513Z,71.90
2023-04-04T09:07:02.706Z,72.11
2023-04-04T09:09:32.403Z,72.26
2023-04-04T09:12:02.526Z,71.20
2023-04-04T09:14:34.263Z,69.94
2023-04-04T09:17:01.058Z,69.98
2023-04-04T09:19:27.924Z,70.89
2023-04-04T09:21:54.700Z,68.92
2023-04-04T09:24:21.409Z,66.72
2023-04-04T09:26:53.494Z,66.59
2023-04-04T09:29:21.665Z,67.81
2023-04-04T09:31:49.802Z,69.92
2023-04-04T09:34:19.018Z,69.02
2023-04-04T09:36:46.451Z,68.59
2023-04-04T09:39:16.763Z,68.47
2023-04-04T09:41:46.232Z,68.78
2023-04-04T09:44:13.924Z,69.07
2023-04-04T09:46:40.990Z,68.52
2023-04-04T09:49:13.363Z,66.82
2023-04-04T09:51:42.731Z,65.41
2023-04-04T09:54:28.820Z,66.28
2023-04-04T09:56:56.638Z,65.83
2023-04-04T09:59:24.451Z,63.87
2023-04-04T10:01:53.718Z,65.20
2023-04-04T10:04:20.662Z,62.66
2023-04-04T10:06:47.370Z,61.55
2023-04-04T10:09:16.360Z,62.26
2023-04-04T10:11:43.188Z,61.38
2023-04-04T10:14:09.987Z,61.23
2023-04-04T10:16:38.120Z,60.33
2023-04-04T10:19:08.142Z,63.23
2023-04-04T10:21:35.879Z,62.87
2023-04-04T10:24:09.392Z,59.11
2023-04-04T10:26:37.222Z,60.53
2023-04-04T10:29:06.249Z,60.77
2023-04-04T10:31:35.272Z,60.00
2023-04-04T10:34:22.205Z,60.19
2023-04-04T10:36:58.274Z,60.22
2023-04-04T10:39:54.064Z,59.05
2023-04-04T10:42:21.188Z,59.62
2023-04-04T10:44:47.837Z,58.12
2023-04-04T10:47:17.894Z,59.45
2023-04-04T10:49:46.554Z,58.16
2023-04-04T10:52:18.261Z,56.24
2023-04-04T10:54:45.949Z,58.12
2023-04-04T10:57:14.339Z,57.50
2023-04-04T11:00:14.666Z,56.10
2023-04-04T11:02:53.559Z,54.58
2023-04-04T11:05:27.620Z,56.78
2023-04-04T11:08:09.821Z,55.91
2023-04-04T11:10:37.619Z,55.06
2023-04-04T11:13:18.868Z,53.95
2023-04-04T11:16:05.587Z,54.00
2023-04-04T11:18:34.009Z,52.43
2023-04-04T11:21:07.580Z,51.77
2023-04-04T11:23:49.225Z,51.05
2023-04-04T11:26:30.845Z,52.86
2023-04-04T11:29:02.291Z,51.69
2023-04-04T11:31:34.074Z,51.92
2023-04-04T11:34:08.895Z,51.38
2023-04-04T11:36:35.524Z,52.79
2023-04-04T11:39:07.088Z,52.42
2023-04-04T11:41:52.712Z,53.66
2023-04-04T11:44:21.522Z,53.27
2023-04-04T11:46:51.120Z,54.56
2023-04-04T11:49:18.676Z,53.76
2023-04-04T11:51:46.028Z,55.12
2023-04-04T11:54:17.339Z,55.17
2023-04-04T11:56:45.068Z,55.61
2023-04-04T11:59:23.015Z,56.44
2023-04-04T12:01:49.908Z,56.81
2023-04-04T12:04:21.558Z,53.76
2023-04-04T12:06:51.667Z,52.06
2023-04-04T12:09:19.414Z,51.64
2023-04-04T12:11:47.319Z,52.23
2023-04-04T12:14:22.080Z,52.67
2023-04-04T12:16:50.866Z,54.82
2023-04-04T12:19:18.652Z,55.16
2023-04-04T12:21:49.790Z,56.14
2023-04-04T12:24:16.982Z,56.52
2023-04-04T12:26:46.406Z,56.54
2023-04-04T12:29:16.060Z,56.64
2023-04-04T12:31:44.765Z,55.55
2023-04-04T12:34:19.411Z,55.46
2023-04-04T12:36:51.727Z,53.52
2023-04-04T12:39:20.542Z,51.53
2023-04-04T12:42:09.129Z,51.74
2023-04-04T12:44:37.919Z,50.46
2023-04-04T12:47:07.361Z,53.06
2023-04-04T12:49:42.919Z,53.88
2023-04-04T12:52:26.602Z,54.98
2023-04-04T12:55:06.792Z,58.17
2023-04-04T12:57:35.515Z,56.90
2023-04-04T13:00:04.706Z,56.51
2023-04-04T13:02:31.475Z,56.44
2023-04-04T13:04:58.959Z,56.67
2023-04-04T13:07:32.643Z,55.32
2023-04-04T13:10:04.117Z,54.18
2023-04-04T13:13:02.587Z,51.43
2023-04-04T13:15:51.302Z,50.18
2023-04-04T13:18:23.937Z,51.86
2023-04-04T13:20:55.223Z,51.56
2023-04-04T13:23:23.027Z,49.95
2023-04-04T13:25:49.917Z,50.58
2023-04-04T13:28:17.066Z,52.23
2023-04-04T13:30:49.068Z,52.08
2023-04-04T13:33:17.676Z,52.71
2023-04-04T13:35:46.108Z,54.20
2023-04-04T13:38:13.078Z,54.45
2023-04-04T13:40:39.968Z,55.15
2023-04-04T13:43:06.934Z,54.83
2023-04-04T13:45:34.716Z,53.90
2023-04-04T13:48:02.383Z,53.56
2023-04-04T13:50:29.334Z,52.55
2023-04-04T13:52:56.824Z,52.15
2023-04-04T13:55:23.663Z,53.84
2023-04-04T13:57:50.520Z,54.82
2023-04-04T14:00:17.654Z,55.25
2023-04-04T14:02:44.479Z,57.05
2023-04-04T14:05:11.969Z,58.57
2023-04-04T14:07:38.868Z,57.30
2023-04-04T14:10:06.155Z,57.68
2023-04-04T14:12:33.023Z,58.18
2023-04-04T14:14:59.696Z,58.87
2023-04-04T14:17:26.624Z,58.28
2023-04-04T14:19:53.281Z,57.20
2023-04-04T14:22:20.006Z,57.06
2023-04-04T14:24:47.028Z,56.10
2023-04-04T14:27:13.682Z,55.27
2023-04-04T14:29:40.655Z,55.32
2023-04-04T14:32:07.276Z,54.50
2023-04-04T14:34:33.921Z,54.55
2023-04-04T14:37:00.852Z,57.08
2023-04-04T14:39:28.170Z,57.67
2023-04-04T14:41:55.062Z,56.85
2023-04-04T14:44:22.122Z,58.38
2023-04-04T14:46:52.858Z,59.48
2023-04-04T14:49:19.675Z,59.49
2023-04-04T14:51:46.515Z,58.88
2023-04-04T14:54:13.267Z,58.21
2023-04-04T14:56:39.953Z,59.61
2023-04-04T14:59:07.173Z,59.64
2023-04-04T15:01:34.081Z,58.33
2023-04-04T15:04:00.894Z,58.90
2023-04-04T15:06:27.825Z,57.68
2023-04-04T15:08:54.651Z,57.22
2023-04-04T15:11:21.783Z,57.39
2023-04-04T15:13:48.591Z,57.74
2023-04-04T15:16:17.951Z,57.31
2023-04-04T15:18:44.833Z,57.11
2023-04-04T15:21:11.552Z,57.76
2023-04-04T15:23:38.196Z,56.99
2023-04-04T15:26:06.510Z,57.55
2023-04-04T15:28:33.613Z,56.49
2023-04-04T15:31:03.581Z,55.78
2023-04-04T15:33:30.437Z,57.55
2023-04-04T15:35:57.212Z,57.00
2023-04-04T15:38:23.916Z,57.49
2023-04-04T15:40:50.696Z,57.62
2023-04-04T15:43:17.376Z,56.59
2023-04-04T15:45:44.042Z,59.04
2023-04-04T15:48:10.746Z,58.05
2023-04-04T15:50:37.329Z,58.35
2023-04-04T15:53:04.014Z,58.53
2023-04-04T15:55:30.717Z,59.31
2023-04-04T15:57:57.306Z,59.03
2023-04-04T16:00:24.253Z,58.19
2023-04-04T16:02:51.330Z,58.06
2023-04-04T16:05:18.334Z,58.09
2023-04-04T16:07:44.979Z,57.90
2023-04-04T16:10:11.853Z,56.69
2023-04-04T16:12:38.452Z,56.77
2023-04-04T16:15:07.194Z,56.87
2023-04-04T16:17:34.042Z,56.48
2023-04-04T16:20:01.209Z,57.13
2023-04-04T16:22:27.920Z,56.71
2023-04-04T16:24:54.515Z,57.40
2023-04-04T16:27:21.342Z,57.02
2023-04-04T16:29:47.870Z,57.79
2023-04-04T16:32:14.717Z,60.10
2023-04-04T16:34:41.467Z,60.74
2023-04-04T16:37:10.033Z,60.86
2023-04-04T16:39:36.721Z,61.15
2023-04-04T16:42:03.690Z,61.43
2023-04-04T16:44:30.418Z,61.78
2023-04-04T16:46:57.251Z,61.99
2023-04-04T16:49:24.088Z,62.76
2023-04-04T16:51:50.719Z,63.59
2023-04-04T16:54:17.377Z,64.08
2023-04-04T16:56:44.294Z,65.09
2023-04-04T16:59:11.424Z,65.12
2023-04-04T17:01:38.623Z,64.89
2023-04-04T17:04:06.036Z,65.21
2023-04-04T17:06:33.497Z,65.84
2023-04-04T17:09:00.163Z,65.31
2023-04-04T17:11:28.262Z,65.04
2023-04-04T17:13:55.102Z,64.60
2023-04-04T17:16:23.587Z,64.93
2023-04-04T17:18:50.408Z,64.98
2023-04-04T17:21:17.716Z,65.69
2023-04-04T17:23:44.429Z,66.16
2023-04-04T17:26:11.227Z,66.56
2023-04-04T17:28:37.902Z,66.77
2023-04-04T17:31:04.865Z,67.59
2023-04-04T17:33:33.213Z,67.75
2023-04-04T17:35:59.986Z,68.54
2023-04-04T17:38:26.901Z,68.55
2023-04-04T17:40:54.074Z,68.45
2023-04-04T17:43:21.356Z,69.31
2023-04-04T17:45:48.360Z,69.49
2023-04-04T17:48:15.081Z,68.74
2023-04-04T17:50:43.240Z,68.82
2023-04-04T17:53:10.086Z,69.90
2023-04-04T17:55:37.101Z,69.63
2023-04-04T17:58:03.876Z,71.47
2023-04-04T18:00:30.949Z,71.16
2023-04-04T18:02:57.683Z,71.67
2023-04-04T18:05:24.599Z,71.69
2023-04-04T18:07:51.386Z,71.38
2023-04-04T18:10:18.211Z,71.42
2023-04-04T18:12:45.639Z,71.80
2023-04-04T18:15:12.998Z,72.79
2023-04-04T18:17:40.273Z,71.99
2023-04-04T18:20:08.940Z,71.99
2023-04-04T18:22:35.784Z,72.10
2023-04-04T18:25:02.657Z,73.47
2023-04-04T18:27:29.304Z,73.91
2023-04-04T18:29:56.072Z,75.76
2023-04-04T18:32:25.895Z,77.67
2023-04-04T18:34:52.574Z,79.91
2023-04-04T18:37:19.165Z,79.95
2023-04-04T18:39:45.863Z,80.90
2023-04-04T18:42:12.564Z,79.83
2023-04-04T18:44:39.674Z,78.30
2023-04-04T18:47:08.391Z,77.18
2023-04-04T18:49:35.776Z,77.03
2023-04-04T18:52:02.550Z,76.97
2023-04-04T18:54:29.280Z,76.77
2023-04-04T18:56:57.766Z,76.52
2023-04-04T18:59:24.958Z,76.13
2023-04-04T19:01:54.631Z,75.25
2023-04-04T19:04:21.959Z,74.89
2023-04-04T19:06:53.823Z,75.53
2023-04-04T19:09:21.514Z,76.04
2023-04-04T19:11:49.333Z,76.51
2023-04-04T19:14:17.345Z,77.50
2023-04-04T19:16:43.992Z,79.83
2023-04-04T19:19:12.367Z,81.67
2023-04-04T19:21:38.964Z,82.71
2023-04-04T19:24:06.658Z,83.29
2023-04-04T19:26:33.332Z,82.97
2023-04-04T19:29:00.055Z,82.92
2023-04-04T19:31:30.580Z,84.25
2023-04-04T19:33:57.233Z,84.58
2023-04-04T19:36:24.902Z,85.16
2023-04-04T19:38:54.676Z,85.68
2023-04-04T19:41:34.476Z,85.19
2023-04-04T19:44:01.668Z,84.52
2023-04-04T19:46:32.038Z,84.54
2023-04-04T19:49:00.281Z,84.73
2023-04-04T19:51:28.047Z,84.75
2023-04-04T19:53:56.480Z,85.65
2023-04-04T19:56:25.301Z,85.78
2023-04-04T19:59:06.854Z,86.43
2023-04-04T20:01:44.771Z,87.06
2023-04-04T20:04:22.778Z,87.89
2023-04-04T20:06:50.053Z,88.09
2023-04-04T20:09:34.982Z,88.18
2023-04-04T20:12:02.136Z,88.36
2023-04-04T20:14:29.160Z,88.59
2023-04-04T20:16:56.310Z,89.09
2023-04-04T20:19:26.624Z,88.27
2023-04-04T20:21:53.638Z,87.63
2023-04-04T20:24:21.810Z,87.24
2023-04-04T20:26:56.886Z,86.96
2023-04-04T20:29:28.274Z,87.28
2023-04-04T20:32:18.877Z,88.29
2023-04-04T20:34:50.781Z,88.19
2023-04-04T20:37:35.056Z,88.66
2023-04-04T20:40:21.593Z,88.12
2023-04-04T20:42:48.841Z,87.98
2023-04-04T20:45:31.968Z,87.16
2023-04-04T20:48:00.636Z,87.35
2023-04-04T20:50:27.552Z,87.42
2023-04-04T20:53:05.135Z,87.21
2023-04-04T20:55:34.142Z,87.26
2023-04-04T20:58:25.592Z,87.44
2023-04-04T21:00:52.336Z,88.14
2023-04-04T21:03:24.860Z,88.40
2023-04-04T21:05:58.367Z,88.14
2023-04-04T21:08:51.307Z,88.60
2023-04-04T21:11:29.052Z,88.86
2023-04-04T21:13:57.078Z,88.85
2023-04-04T21:16:26.577Z,88.71
2023-04-04T21:19:01.082Z,88.26
2023-04-04T21:21:28.691Z,88.44
2023-04-04T21:23:57.637Z,88.39
2023-04-04T21:26:35.109Z,87.58
2023-04-04T21:29:03.469Z,88.48
2023-04-04T21:31:36.271Z,89.62
2023-04-04T21:34:09.070Z,89.99
2023-04-04T21:36:35.699Z,91.13
2023-04-04T21:39:09.842Z,91.53
2023-04-04T21:41:36.505Z,91.20
2023-04-04T21:44:05.577Z,91.58
2023-04-04T21:46:34.516Z,91.41
2023-04-04T21:49:01.787Z,91.49
2023-04-04T21:51:28.493Z,91.75
2023-04-04T21:53:56.040Z,92.04
2023-04-04T21:56:27.489Z,92.08
2023-04-04T21:58:55.778Z,92.45
2023-04-04T22:01:22.610Z,92.54
2023-04-04T22:03:49.478Z,92.32
2023-04-04T22:06:16.465Z,92.85
2023-04-04T22:08:43.099Z,92.77
2023-04-04T22:11:13.707Z,91.89
2023-04-04T22:13:47.144Z,92.55
2023-04-04T22:16:18.693Z,93.26
2023-04-04T22:18:47.577Z,93.37
2023-04-04T22:21:15.914Z,94.53
2023-04-04T22:23:43.154Z,94.53
2023-04-04T22:26:14.047Z,93.83
2023-04-04T22:28:45.860Z,93.42
2023-04-04T22:31:12.692Z,92.24
2023-04-04T22:33:39.336Z,92.46
2023-04-04T22:36:08.188Z,92.82
2023-04-04T22:38:34.871Z,93.25
2023-04-04T22:41:01.477Z,93.38
2023-04-04T22:43:28.708Z,93.56
2023-04-04T22:45:55.594Z,93.59
2023-04-04T22:48:25.087Z,92.47
2023-04-04T22:50:55.866Z,92.41
2023-04-04T22:53:26.111Z,92.55
2023-04-04T22:55:54.090Z,93.34
2023-04-04T22:58:21.892Z,93.12
2023-04-04T23:00:48.835Z,93.94
2023-04-04T23:03:16.005Z,94.71
2023-04-04T23:05:43.142Z,94.57
2023-04-04T23:08:09.807Z,94.44
2023-04-04T23:10:37.090Z,94.54
2023-04-04T23:13:03.991Z,94.13
2023-04-04T23:15:32.479Z,94.49
2023-04-04T23:17:59.217Z,93.89
2023-04-04T23:20:25.931Z,94.79
2023-04-04T23:22:53.082Z,94.78
2023-04-04T23:25:19.842Z,94.76
2023-04-04T23:27:46.492Z,94.37
2023-04-04T23:30:13.280Z,94.51
2023-04-04T23:32:40.044Z,95.19
2023-04-04T23:35:06.912Z,95.23
2023-04-04T23:37:33.534Z,95.38
2023-04-04T23:40:00.160Z,95.58
2023-04-04T23:42:26.753Z,96.13
2023-04-04T23:44:53.338Z,95.75
2023-04-04T23:47:21.049Z,95.89
2023-04-04T23:49:47.595Z,95.81
2023-04-04T23:52:14.395Z,96.75
2023-04-04T23:54:41.108Z,96.53
2023-04-04T23:57:07.931Z,96.31
2023-04-04T23:59:34.568Z,96.23
